Time;durP1;ratioP1;P1;durP2;ratioP2;P2;SDS_P1;SDS_P2;PMS_P1;PMS_P2;Temp;Humidity;BMP_temperature;BMP_pressure;BME280_temperature;BME280_humidity;BME280_pressure;Samples;Min_cycle;Max_cycle;Signal;HPM_P1;HPM_P2
2021/05/02 00:02:18;;;;;;;;;;;;;;;13.93;52.65;100743.47;5060394;27;96735;-81
2021/05/02 00:04:44;;;;;;;;;;;;;;;13.95;52.62;100746.06;5056408;27;96798;-81
2021/05/02 00:07:10;;;;;;;;;;;;;;;13.64;53.35;100749.34;5054908;27;97515;-81
2021/05/02 00:09:37;;;;;;;;;;;;;;;13.31;54.36;100745.63;5053119;27;101028;-82
2021/05/02 00:12:04;;;;;;;;;;;;;;;13.27;54.62;100741.38;5054781;27;96883;-82
2021/05/02 00:14:30;;;;;;;;;;;;;;;13.18;55.06;100744.47;5054132;27;97164;-81
2021/05/02 00:16:56;;;;;;;;;;;;;;;13.55;54.12;100737.38;5054073;27;98914;-82
2021/05/02 00:19:22;;;;;;;;;;;;;;;13.45;54.27;100728.13;5055143;27;98413;-82
2021/05/02 00:21:48;;;;;;;;;;;;;;;13.31;54.30;100732.38;5056625;27;96764;-82
2021/05/02 00:24:14;;;;;;;;;;;;;;;13.30;54.65;100725.34;5075278;27;96791;-82
2021/05/02 00:26:40;;;;;;;;;;;;;;;13.16;55.00;100732.13;5074757;27;98084;-82
2021/05/02 00:29:10;;;;;;;;;;;;;;;13.48;54.08;100735.06;5073684;27;98012;-81
2021/05/02 00:31:36;;;;;;;;;;;;;;;13.66;53.60;100722.69;5075516;27;96477;-80
2021/05/02 00:34:02;;;;;;;;;;;;;;;13.02;55.26;100721.25;5074339;27;96853;-81
2021/05/02 00:36:28;;;;;;;;;;;;;;;13.06;55.07;100728.13;5089309;27;98174;-81
2021/05/02 00:38:54;;;;;;;;;;;;;;;13.33;54.39;100725.16;5046355;27;96807;-81
2021/05/02 00:41:22;;;;;;;;;;;;;;;12.80;56.10;100719.69;5055883;27;97455;-82
2021/05/02 00:43:54;;;;;;;;;;;;;;;13.04;55.36;100705.28;5061733;27;96904;-81
2021/05/02 00:46:25;;;;;;;;;;;;;;;13.07;55.38;100700.69;5065651;27;99457;-81
2021/05/02 00:48:53;;;;;;;;;;;;;;;13.49;54.03;100691.66;5051531;27;98944;-81
2021/05/02 00:51:20;;;;;;;;;;;;;;;13.56;53.61;100701.91;5054479;27;96664;-81
2021/05/02 00:53:50;;;;;;;;;;;;;;;13.70;53.31;100693.28;5053526;27;97049;-80
2021/05/02 00:56:17;;;;;;;;;;;;;;;13.63;53.28;100702.47;5049677;27;97908;-82
2021/05/02 00:58:49;;;;;;;;;;;;;;;13.78;52.81;100704.41;5052627;27;97800;-82
2021/05/02 01:01:18;;;;;;;;;;;;;;;12.94;55.31;100707.50;5054143;27;96817;-81
2021/05/02 01:03:46;;;;;;;;;;;;;;;13.67;53.38;100716.47;5053297;27;98750;-81
2021/05/02 01:06:14;;;;;;;;;;;;;;;13.41;54.13;100709.75;5055841;27;99712;-81
2021/05/02 01:08:41;;;;;;;;;;;;;;;13.09;54.64;100706.78;5057441;27;99912;-80
2021/05/02 01:11:10;;;;;;;;;;;;;;;13.40;53.98;100714.19;5057777;27;96666;-81
2021/05/02 01:13:37;;;;;;;;;;;;;;;12.80;55.92;100720.50;5055189;27;96857;-81
2021/05/02 01:16:03;;;;;;;;;;;;;;;13.15;54.96;100717.16;5055978;27;99480;-80
2021/05/02 01:18:29;;;;;;;;;;;;;;;13.03;55.31;100709.72;5055174;27;99655;-81
2021/05/02 01:20:56;;;;;;;;;;;;;;;13.05;55.09;100705.22;5055570;27;97331;-80
2021/05/02 01:23:27;;;;;;;;;;;;;;;13.23;54.58;100706.19;5056343;27;96924;-81
2021/05/02 01:25:55;;;;;;;;;;;;;;;13.46;53.91;100707.72;5054897;27;99241;-81
2021/05/02 01:28:22;;;;;;;;;;;;;;;13.31;54.07;100703.16;5037487;27;97944;-81
2021/05/02 01:30:49;;;;;;;;;;;;;;;13.56;53.59;100701.06;5054872;27;96943;-81
2021/05/02 01:33:15;;;;;;;;;;;;;;;13.84;52.79;100695.25;5055251;27;97251;-81
2021/05/02 01:35:41;;;;;;;;;;;;;;;13.43;53.89;100705.25;5051343;27;101108;-81
2021/05/02 01:38:07;;;;;;;;;;;;;;;13.74;52.98;100708.13;5049255;27;100760;-81
2021/05/02 01:40:34;;;;;;;;;;;;;;;14.06;51.90;100710.97;5059744;27;96946;-80
2021/05/02 01:43:00;;;;;;;;;;;;;;;13.20;54.30;100708.09;5071964;27;96971;-80
2021/05/02 01:45:26;;;;;;;;;;;;;;;13.31;54.39;100708.47;5062635;27;100019;-81
2021/05/02 01:47:56;;;;;;;;;;;;;;;12.69;56.03;100717.47;5071130;27;97650;-80
2021/05/02 01:50:22;;;;;;;;;;;;;;;12.42;57.09;100708.09;5077747;27;96621;-81
2021/05/02 01:52:51;;;;;;;;;;;;;;;13.13;55.13;100703.09;5066283;27;97103;-80
2021/05/02 01:55:17;;;;;;;;;;;;;;;13.42;54.02;100698.19;5064330;27;97896;-81
2021/05/02 01:57:47;;;;;;;;;;;;;;;12.97;55.43;100698.53;5065864;27;99334;-80
2021/05/02 02:00:25;;;;;;;;;;;;;;;13.24;54.66;100691.13;5064051;27;99019;-81
2021/05/02 02:02:51;;;;;;;;;;;;;;;13.44;53.90;100701.66;5077816;27;96670;-81
2021/05/02 02:05:22;;;;;;;;;;;;;;;13.91;52.60;100692.19;5070114;27;97142;-82
2021/05/02 02:07:48;;;;;;;;;;;;;;;13.85;52.70;100689.00;5061247;27;98104;-82
2021/05/02 02:10:15;;;;;;;;;;;;;;;13.70;53.17;100693.28;5059335;27;96963;-81
2021/05/02 02:12:41;;;;;;;;;;;;;;;13.66;53.16;100691.69;5067856;27;98616;-82
2021/05/02 02:15:09;;;;;;;;;;;;;;;13.15;54.76;100685.31;5057555;27;98684;-81
2021/05/02 02:17:37;;;;;;;;;;;;;;;13.21;54.89;100678.00;5058106;27;102338;-82
2021/05/02 02:20:04;;;;;;;;;;;;;;;12.94;55.64;100688.06;5057449;27;96800;-81
2021/05/02 02:22:30;;;;;;;;;;;;;;;12.59;56.98;100684.38;5065360;27;97233;-82
2021/05/02 02:24:57;;;;;;;;;;;;;;;12.61;56.88;100677.19;5059589;27;98778;-82
2021/05/02 02:27:26;;;;;;;;;;;;;;;12.78;56.32;100679.97;5075841;27;101100;-81
2021/05/02 02:29:53;;;;;;;;;;;;;;;13.29;54.83;100673.19;5068754;27;96958;-82
2021/05/02 02:32:20;;;;;;;;;;;;;;;13.03;55.40;100675.25;5065303;27;96772;-81
2021/05/02 02:34:47;;;;;;;;;;;;;;;12.87;55.92;100676.88;5061238;27;100198;-82
2021/05/02 02:37:14;;;;;;;;;;;;;;;13.08;55.26;100670.56;5064287;27;100760;-81
2021/05/02 02:39:43;;;;;;;;;;;;;;;13.01;55.21;100676.22;5058722;27;96749;-80
2021/05/02 02:42:12;;;;;;;;;;;;;;;12.80;56.02;100672.78;5059793;27;96866;-82
2021/05/02 02:44:39;;;;;;;;;;;;;;;13.16;55.27;100670.25;5058571;27;99636;-82
2021/05/02 02:47:06;;;;;;;;;;;;;;;13.16;54.77;100665.81;5065462;27;97754;-82
2021/05/02 02:49:33;;;;;;;;;;;;;;;13.45;54.38;100658.25;5055707;27;96784;-82
2021/05/02 02:52:01;;;;;;;;;;;;;;;13.37;54.27;100665.72;5050854;27;96909;-82
2021/05/02 02:54:29;;;;;;;;;;;;;;;13.47;54.13;100664.31;5051503;27;99173;-82
2021/05/02 02:56:57;;;;;;;;;;;;;;;12.99;55.46;100675.47;5057598;27;100649;-82
2021/05/02 02:59:25;;;;;;;;;;;;;;;12.89;55.90;100671.50;5050807;27;97554;-82
2021/05/02 03:01:54;;;;;;;;;;;;;;;13.15;55.21;100672.03;5055461;27;96804;-83
2021/05/02 03:04:22;;;;;;;;;;;;;;;12.77;56.15;100672.94;5051017;27;99300;-81
2021/05/02 03:06:51;;;;;;;;;;;;;;;12.92;55.87;100672.25;5053904;27;99226;-81
2021/05/02 03:09:17;;;;;;;;;;;;;;;12.99;55.70;100671.03;5053823;27;97026;-82
2021/05/02 03:11:43;;;;;;;;;;;;;;;12.92;55.69;100674.88;5054258;27;96853;-82
2021/05/02 03:14:11;;;;;;;;;;;;;;;12.96;55.72;100679.13;5052028;27;97190;-82
2021/05/02 03:16:37;;;;;;;;;;;;;;;12.77;55.86;100688.84;5054902;27;98090;-82
2021/05/02 03:19:07;;;;;;;;;;;;;;;13.08;55.36;100680.31;5052887;27;97446;-82
2021/05/02 03:21:38;;;;;;;;;;;;;;;13.25;55.12;100676.94;5054118;27;96728;-81
2021/05/02 03:24:07;;;;;;;;;;;;;;;13.08;55.27;100675.88;5053042;27;98941;-82
2021/05/02 03:26:34;;;;;;;;;;;;;;;13.00;55.27;100680.69;5053893;27;98743;-82
2021/05/02 03:29:02;;;;;;;;;;;;;;;13.16;54.70;100681.72;5052303;27;97153;-81
2021/05/02 03:31:29;;;;;;;;;;;;;;;13.37;54.19;100679.84;5054414;27;97416;-82
2021/05/02 03:33:57;;;;;;;;;;;;;;;13.42;54.18;100684.94;5052888;27;100482;-82
2021/05/02 03:36:26;;;;;;;;;;;;;;;13.26;54.63;100684.78;5058521;27;99179;-82
2021/05/02 03:38:52;;;;;;;;;;;;;;;13.12;54.92;100687.22;5052530;27;96884;-81
2021/05/02 03:41:20;;;;;;;;;;;;;;;13.34;54.28;100684.44;5052498;27;97092;-82
2021/05/02 03:44:02;;;;;;;;;;;;;;;12.96;55.29;100686.19;5095319;27;96629;-80
2021/05/02 03:46:29;;;;;;;;;;;;;;;12.49;56.57;100685.69;5093340;27;96978;-80
2021/05/02 03:48:56;;;;;;;;;;;;;;;12.52;56.63;100682.91;5084966;27;99118;-80
2021/05/02 03:51:23;;;;;;;;;;;;;;;12.60;56.85;100691.41;5090873;27;101082;-81
2021/05/02 03:53:49;;;;;;;;;;;;;;;12.55;56.86;100686.28;5092452;27;96958;-81
2021/05/02 03:56:28;;;;;;;;;;;;;;;12.63;56.17;100685.94;5092049;27;96873;-81
2021/05/02 03:58:54;;;;;;;;;;;;;;;12.96;55.53;100689.72;5073671;27;97845;-80
2021/05/02 04:01:21;;;;;;;;;;;;;;;12.87;55.63;100692.78;5088856;27;98257;-81
2021/05/02 04:03:47;;;;;;;;;;;;;;;12.77;55.84;100696.78;5084195;27;97019;-82
2021/05/02 04:06:12;;;;;;;;;;;;;;;12.71;56.10;100694.44;5093323;27;96857;-82
2021/05/02 04:08:38;;;;;;;;;;;;;;;12.57;56.75;100697.69;5094903;27;100759;-80
2021/05/02 04:11:04;;;;;;;;;;;;;;;12.70;56.37;100698.88;5095401;27;98777;-81
2021/05/02 04:13:30;;;;;;;;;;;;;;;12.88;55.75;100689.19;5093939;27;96849;-80
2021/05/02 04:15:56;;;;;;;;;;;;;;;13.10;55.03;100689.94;5103608;27;96660;-82
2021/05/02 04:18:30;;;;;;;;;;;;;;;12.46;56.98;100693.81;5105423;27;98280;-82
2021/05/02 04:20:56;;;;;;;;;;;;;;;12.30;57.97;100699.75;5110158;27;98065;-82
2021/05/02 04:23:22;;;;;;;;;;;;;;;12.65;56.84;100694.69;5098763;27;96654;-81
2021/05/02 04:25:47;;;;;;;;;;;;;;;12.12;58.20;100700.56;5094080;27;96401;-81
2021/05/02 04:28:13;;;;;;;;;;;;;;;12.73;56.30;100698.72;5098369;27;97523;-82
2021/05/02 04:30:39;;;;;;;;;;;;;;;13.01;55.54;100689.50;5111801;27;96501;-81
2021/05/02 04:33:05;;;;;;;;;;;;;;;13.02;55.25;100696.53;5114126;27;96451;-81
2021/05/02 04:35:32;;;;;;;;;;;;;;;13.14;54.77;100688.88;5106464;27;96486;-82
2021/05/02 04:37:57;;;;;;;;;;;;;;;13.34;54.38;100687.94;5094976;27;98973;-82
2021/05/02 04:40:23;;;;;;;;;;;;;;;13.42;53.92;100692.91;5096515;27;100192;-80
2021/05/02 04:42:49;;;;;;;;;;;;;;;13.34;53.71;100690.59;5088424;27;96684;-82
2021/05/02 04:45:15;;;;;;;;;;;;;;;13.17;54.36;100682.59;5094184;27;96780;-81
2021/05/02 04:47:41;;;;;;;;;;;;;;;12.98;55.37;100687.00;5096441;27;101799;-82
2021/05/02 04:50:08;;;;;;;;;;;;;;;12.94;55.32;100688.06;5098678;27;97994;-82
2021/05/02 04:52:34;;;;;;;;;;;;;;;13.37;54.25;100682.50;5098989;27;96632;-82
2021/05/02 04:55:00;;;;;;;;;;;;;;;13.25;54.08;100680.44;5080743;27;96898;-81
2021/05/02 04:57:26;;;;;;;;;;;;;;;13.26;54.39;100681.31;5069618;27;98861;-81
2021/05/02 04:59:52;;;;;;;;;;;;;;;12.97;55.43;100686.16;5071676;27;98842;-81
2021/05/02 05:02:18;;;;;;;;;;;;;;;13.30;54.32;100682.88;5060699;27;96869;-81
2021/05/02 05:04:45;;;;;;;;;;;;;;;13.31;54.07;100674.84;5074321;27;96970;-81
2021/05/02 05:07:10;;;;;;;;;;;;;;;13.34;53.95;100680.00;5078303;27;100179;-81
2021/05/02 05:09:37;;;;;;;;;;;;;;;13.27;54.40;100681.22;5070242;27;97552;-80
2021/05/02 05:12:04;;;;;;;;;;;;;;;13.13;54.52;100681.84;5066393;27;96810;-81
2021/05/02 05:14:30;;;;;;;;;;;;;;;13.11;54.62;100678.41;5069529;27;97113;-81
2021/05/02 05:16:56;;;;;;;;;;;;;;;13.62;53.21;100673.34;5066894;27;101080;-80
2021/05/02 05:19:22;;;;;;;;;;;;;;;13.30;54.07;100680.22;5070694;27;98094;-81
2021/05/02 05:21:48;;;;;;;;;;;;;;;13.16;54.40;100673.78;5071684;27;96896;-81
2021/05/02 05:24:13;;;;;;;;;;;;;;;13.49;53.44;100678.41;5078600;27;98367;-81
2021/05/02 05:26:40;;;;;;;;;;;;;;;13.91;52.55;100673.59;5079606;27;99306;-81
2021/05/02 05:29:06;;;;;;;;;;;;;;;13.78;52.51;100675.19;5077025;27;98009;-82
2021/05/02 05:31:32;;;;;;;;;;;;;;;13.00;54.57;100678.03;5079843;27;96914;-82
2021/05/02 05:33:57;;;;;;;;;;;;;;;12.48;56.09;100676.88;5073045;27;98621;-82
2021/05/02 05:36:23;;;;;;;;;;;;;;;12.37;57.22;100680.00;5058704;27;99691;-81
2021/05/02 05:38:49;;;;;;;;;;;;;;;12.63;56.14;100675.34;5066312;27;97993;-81
2021/05/02 05:41:15;;;;;;;;;;;;;;;13.20;54.53;100681.56;5078876;27;97556;-81
2021/05/02 05:43:42;;;;;;;;;;;;;;;13.43;53.91;100678.69;5070426;27;96913;-81
2021/05/02 05:46:13;;;;;;;;;;;;;;;13.21;54.20;100680.63;5056874;27;101098;-82
2021/05/02 05:48:39;;;;;;;;;;;;;;;13.09;54.64;100685.56;5063591;27;98754;-81
2021/05/02 05:51:05;;;;;;;;;;;;;;;13.52;53.45;100679.09;5076440;27;96847;-82
2021/05/02 05:53:31;;;;;;;;;;;;;;;13.37;53.52;100690.47;5076604;27;96899;-82
2021/05/02 05:55:57;;;;;;;;;;;;;;;13.22;54.16;100683.22;5065354;27;98188;-82
2021/05/02 05:58:24;;;;;;;;;;;;;;;13.54;53.23;100687.84;5069087;27;97827;-81
2021/05/02 06:00:51;;;;;;;;;;;;;;;13.39;53.56;100699.19;5059344;27;97066;-80
2021/05/02 06:03:17;;;;;;;;;;;;;;;13.10;54.27;100700.56;5077250;27;97166;-80
2021/05/02 06:05:42;;;;;;;;;;;;;;;13.88;52.19;100697.69;5078444;27;99093;-81
2021/05/02 06:08:08;;;;;;;;;;;;;;;13.89;51.84;100699.41;5073351;27;101418;-81
2021/05/02 06:10:34;;;;;;;;;;;;;;;13.80;52.54;100706.94;5072806;27;96728;-82
2021/05/02 06:13:03;;;;;;;;;;;;;;;13.75;52.57;100707.19;5071573;27;97934;-81
2021/05/02 06:15:29;;;;;;;;;;;;;;;13.74;52.43;100707.25;5071343;27;98292;-81
2021/05/02 06:17:57;;;;;;;;;;;;;;;13.93;51.83;100716.91;5068518;27;99247;-80
2021/05/02 06:20:23;;;;;;;;;;;;;;;14.13;51.29;100713.25;5060467;27;96676;-81
2021/05/02 06:22:49;;;;;;;;;;;;;;;13.74;52.10;100721.41;5080195;27;98932;-81
2021/05/02 06:25:14;;;;;;;;;;;;;;;13.40;53.53;100721.28;5080162;27;97885;-80
2021/05/02 06:27:40;;;;;;;;;;;;;;;13.63;52.89;100729.03;5071925;27;101678;-81
2021/05/02 06:30:07;;;;;;;;;;;;;;;14.09;51.54;100724.13;5059536;27;97052;-80
2021/05/02 06:32:33;;;;;;;;;;;;;;;14.42;50.56;100727.75;5070253;27;96904;-80
2021/05/02 06:35:00;;;;;;;;;;;;;;;14.13;51.15;100721.22;5063338;27;98992;-80
2021/05/02 06:37:26;;;;;;;;;;;;;;;14.11;51.02;100731.06;5064732;27;99366;-81
2021/05/02 06:39:51;;;;;;;;;;;;;;;13.69;52.58;100728.75;5060780;27;96730;-81
2021/05/02 06:42:17;;;;;;;;;;;;;;;13.94;52.00;100728.38;5063938;27;98484;-82
2021/05/02 06:44:43;;;;;;;;;;;;;;;14.05;51.57;100736.69;5076370;27;99285;-80
2021/05/02 06:47:09;;;;;;;;;;;;;;;13.77;51.88;100747.81;5079552;27;101715;-80
2021/05/02 06:49:35;;;;;;;;;;;;;;;14.05;51.41;100743.78;5067732;27;96640;-81
2021/05/02 06:52:03;;;;;;;;;;;;;;;14.46;50.45;100744.38;5064057;27;96836;-81
2021/05/02 06:54:30;;;;;;;;;;;;;;;14.25;50.93;100744.50;5074099;27;98482;-81
2021/05/02 06:56:58;;;;;;;;;;;;;;;13.49;52.80;100747.41;5081694;27;97984;-80
2021/05/02 06:59:24;;;;;;;;;;;;;;;13.06;54.45;100748.53;5078794;27;96820;-80
2021/05/02 07:01:50;;;;;;;;;;;;;;;13.75;52.63;100747.03;5076851;27;97594;-81
2021/05/02 07:04:16;;;;;;;;;;;;;;;13.70;52.94;100751.72;5078023;27;99338;-81
2021/05/02 07:06:42;;;;;;;;;;;;;;;13.76;52.80;100751.41;5059934;27;101098;-80
2021/05/02 07:09:09;;;;;;;;;;;;;;;13.99;52.07;100750.25;5059390;27;96927;-81
2021/05/02 07:11:35;;;;;;;;;;;;;;;14.02;51.97;100755.44;5069768;27;97161;-80
2021/05/02 07:14:02;;;;;;;;;;;;;;;14.17;51.68;100751.16;5078390;27;101110;-81
2021/05/02 07:16:28;;;;;;;;;;;;;;;14.15;51.69;100758.34;5073263;27;97549;-82
2021/05/02 07:18:54;;;;;;;;;;;;;;;13.72;52.58;100754.28;5082518;27;97619;-81
2021/05/02 07:21:20;;;;;;;;;;;;;;;13.88;52.15;100760.56;5091783;27;97525;-82
2021/05/02 07:23:47;;;;;;;;;;;;;;;13.98;52.08;100767.13;5079556;27;100052;-81
2021/05/02 07:26:14;;;;;;;;;;;;;;;13.70;53.33;100758.81;5085304;27;98237;-81
2021/05/02 07:28:40;;;;;;;;;;;;;;;13.32;54.30;100757.97;5085181;27;96862;-81
2021/05/02 07:31:07;;;;;;;;;;;;;;;13.83;52.89;100758.16;5088325;27;96919;-82
2021/05/02 07:33:39;;;;;;;;;;;;;;;13.81;53.33;100760.00;5087715;27;97937;-81
2021/05/02 07:36:06;;;;;;;;;;;;;;;13.91;52.79;100758.59;5084915;27;100142;-82
2021/05/02 07:38:35;;;;;;;;;;;;;;;13.48;54.00;100769.56;5087621;27;96531;-81
2021/05/02 07:41:01;;;;;;;;;;;;;;;13.78;53.16;100765.47;5083052;27;96658;-81
2021/05/02 07:43:28;;;;;;;;;;;;;;;13.89;52.99;100767.59;5087295;27;99876;-81
2021/05/02 07:45:55;;;;;;;;;;;;;;;13.80;53.65;100758.28;5082949;27;99302;-85
2021/05/02 07:48:25;;;;;;;;;;;;;;;14.22;52.23;100768.59;5082765;27;96805;-84
2021/05/02 07:50:51;;;;;;;;;;;;;;;14.12;52.00;100763.81;5087771;27;97357;-80
2021/05/02 07:53:18;;;;;;;;;;;;;;;14.66;51.30;100765.50;5084501;27;99820;-81
2021/05/02 07:55:45;;;;;;;;;;;;;;;14.60;51.37;100765.81;5085560;27;98485;-80
2021/05/02 07:58:11;;;;;;;;;;;;;;;14.20;52.04;100761.63;5083193;27;97044;-80
2021/05/02 08:00:38;;;;;;;;;;;;;;;14.59;51.50;100766.75;5087030;27;96949;-81
2021/05/02 08:03:05;;;;;;;;;;;;;;;14.32;52.70;100761.00;5072995;27;98977;-81
2021/05/02 08:05:31;;;;;;;;;;;;;;;14.50;52.22;100765.44;5076940;27;98961;-82
2021/05/02 08:07:57;;;;;;;;;;;;;;;14.84;51.89;100755.69;5079816;27;96869;-82
2021/05/02 08:10:31;;;;;;;;;;;;;;;14.32;52.87;100771.63;5083953;27;96717;-81
2021/05/02 08:12:58;;;;;;;;;;;;;;;13.96;53.69;100777.88;5090412;27;101152;-80
2021/05/02 08:15:25;;;;;;;;;;;;;;;14.03;53.90;100772.25;5076970;27;98661;-82
2021/05/02 08:17:51;;;;;;;;;;;;;;;13.52;55.51;100773.81;5073582;27;98105;-81
2021/05/02 08:20:17;;;;;;;;;;;;;;;13.98;54.17;100775.09;5079872;27;96966;-82
2021/05/02 08:22:44;;;;;;;;;;;;;;;13.53;56.22;100778.19;5085174;27;98821;-82
2021/05/02 08:25:10;;;;;;;;;;;;;;;13.67;55.74;100774.88;5070590;27;99016;-82
2021/05/02 08:27:36;;;;;;;;;;;;;;;14.03;55.61;100781.06;5082639;27;96840;-80
2021/05/02 08:30:04;;;;;;;;;;;;;;;13.60;56.19;100784.94;5095166;27;96865;-81
2021/05/02 08:32:33;;;;;;;;;;;;;;;13.35;57.53;100787.88;5127168;22;98156;-81
2021/05/02 08:35:04;;;;;;;;;;;;;;;13.53;57.85;100781.69;5096245;27;96893;-81
2021/05/02 08:37:31;;;;;;;;;;;;;;;13.84;57.11;100782.91;5095244;27;96766;-82
2021/05/02 08:39:57;;;;;;;;;;;;;;;13.52;57.34;100784.44;5099804;27;96681;-81
2021/05/02 08:42:24;;;;;;;;;;;;;;;13.53;58.18;100786.13;5093576;27;97703;-82
2021/05/02 08:44:51;;;;;;;;;;;;;;;13.80;56.12;100778.66;5097146;27;100546;-81
2021/05/02 08:47:22;;;;;;;;;;;;;;;14.37;55.18;100780.28;5093495;27;96816;-81
2021/05/02 08:49:48;;;;;;;;;;;;;;;14.86;54.49;100778.63;5087932;27;96936;-82
2021/05/02 08:52:15;;;;;;;;;;;;;;;15.09;52.91;100774.75;5083997;27;98188;-82
2021/05/02 08:54:41;;;;;;;;;;;;;;;14.29;55.32;100772.66;5079859;27;99378;-82
2021/05/02 08:57:07;;;;;;;;;;;;;;;14.43;55.42;100779.13;5075068;27;96979;-82
2021/05/02 08:59:33;;;;;;;;;;;;;;;14.24;55.18;100784.47;5082305;27;97617;-82
2021/05/02 09:01:59;;;;;;;;;;;;;;;14.62;54.49;100782.56;5080570;27;98958;-83
2021/05/02 09:04:26;;;;;;;;;;;;;;;14.72;54.17;100782.00;5075732;27;101303;-82
2021/05/02 09:06:52;;;;;;;;;;;;;;;14.27;55.22;100784.31;5081184;27;96789;-81
2021/05/02 09:09:19;;;;;;;;;;;;;;;14.23;56.79;100782.75;5084500;27;96886;-82
2021/05/02 09:11:45;;;;;;;;;;;;;;;13.88;56.69;100781.81;5081155;27;98333;-81
2021/05/02 09:14:26;;;;;;;;;;;;;;;13.94;57.05;100786.84;5093380;27;97753;-80
2021/05/02 09:16:53;;;;;;;;;;;;;;;13.80;57.58;100779.53;5095826;27;96627;-83
2021/05/02 09:19:19;;;;;;;;;;;;;;;14.13;56.48;100779.69;5090414;27;96920;-82
2021/05/02 09:21:46;;;;;;;;;;;;;;;13.80;57.73;100783.97;5085319;27;97927;-80
2021/05/02 09:24:23;;;;;;;;;;;;;;;13.65;57.93;100774.97;5087632;27;99388;-81
2021/05/02 09:27:04;;;;;;;;;;;;;;;13.74;57.72;100779.81;5090685;27;97104;-81
2021/05/02 09:29:31;;;;;;;;;;;;;;;13.60;58.12;100778.75;5084423;27;97665;-82
2021/05/02 09:31:57;;;;;;;;;;;;;;;13.88;57.71;100780.03;5084255;27;99499;-81
2021/05/02 09:34:25;;;;;;;;;;;;;;;13.91;57.09;100771.88;5085234;27;98250;-82
2021/05/02 09:36:54;;;;;;;;;;;;;;;14.61;54.56;100773.72;5088925;27;96911;-80
2021/05/02 09:39:38;;;;;;;;;;;;;;;14.42;55.43;100777.41;5089130;27;97393;-79
2021/05/02 09:42:05;;;;;;;;;;;;;;;13.93;56.41;100777.13;5097756;27;98612;-81
2021/05/02 09:44:37;;;;;;;;;;;;;;;14.30;55.22;100774.41;5088650;27;99444;-82
2021/05/02 09:47:18;;;;;;;;;;;;;;;14.81;54.05;100780.66;5076605;27;96706;-82
2021/05/02 09:50:01;;;;;;;;;;;;;;;15.00;52.68;100780.56;5086380;27;96953;-83
2021/05/02 09:52:39;;;;;;;;;;;;;;;15.04;52.64;100782.09;5083793;27;98204;-82
2021/05/02 09:55:21;;;;;;;;;;;;;;;14.75;53.60;100789.81;5088818;27;99115;-80
2021/05/02 09:57:52;;;;;;;;;;;;;;;14.33;54.00;100789.31;5085157;27;96691;-81
2021/05/02 10:00:25;;;;;;;;;;;;;;;14.03;55.06;100788.19;5085490;27;96948;-82
2021/05/02 10:02:51;;;;;;;;;;;;;;;14.67;53.78;100794.69;5079609;27;100675;-81
2021/05/02 10:05:17;;;;;;;;;;;;;;;14.99;51.71;100792.13;5086548;27;99236;-81
2021/05/02 10:07:45;;;;;;;;;;;;;;;14.66;52.79;100794.75;5085349;27;96790;-81
2021/05/02 10:10:12;;;;;;;;;;;;;;;15.09;51.91;100801.34;5087114;27;96950;-83
2021/05/02 10:12:40;;;;;;;;;;;;;;;15.60;49.95;100789.72;5081880;27;98759;-82
2021/05/02 10:15:13;;;;;;;;;;;;;;;15.93;48.90;100790.47;5084321;27;99542;-84
2021/05/02 10:17:40;;;;;;;;;;;;;;;16.02;48.47;100793.53;5093251;27;96711;-84
2021/05/02 10:20:09;;;;;;;;;;;;;;;15.18;50.25;100790.19;5095084;27;97790;-83
2021/05/02 10:22:36;;;;;;;;;;;;;;;15.66;49.03;100791.16;5100221;27;99667;-83
2021/05/02 10:25:02;;;;;;;;;;;;;;;15.54;49.58;100793.56;5093242;27;100297;-83
2021/05/02 10:27:28;;;;;;;;;;;;;;;15.18;49.95;100795.53;5080577;27;96164;-84
2021/05/02 10:29:57;;;;;;;;;;;;;;;14.48;51.24;100796.56;5088013;27;96850;-81
2021/05/02 10:32:35;;;;;;;;;;;;;;;14.36;51.89;100797.16;5094195;27;96879;-82
2021/05/02 10:35:09;;;;;;;;;;;;;;;14.06;53.02;100798.66;5081296;27;99719;-81
2021/05/02 10:37:37;;;;;;;;;;;;;;;14.93;50.89;100795.97;5079016;27;96760;-82
2021/05/02 10:40:06;;;;;;;;;;;;;;;15.22;49.83;100794.44;5080742;27;96913;-82
2021/05/02 10:42:43;;;;;;;;;;;;;;;15.83;48.21;100799.94;5078945;27;99360;-80
2021/05/02 10:45:28;;;;;;;;;;;;;;;15.90;48.15;100801.31;5077251;27;97503;-80
2021/05/02 10:47:55;;;;;;;;;;;;;;;16.25;46.70;100796.63;5084236;27;96766;-82
2021/05/02 10:50:27;;;;;;;;;;;;;;;16.99;44.91;100798.47;5081229;27;97422;-81
2021/05/02 10:53:03;;;;;;;;;;;;;;;16.90;45.05;100807.88;5076262;27;98899;-82
2021/05/02 10:55:45;;;;;;;;;;;;;;;16.95;44.94;100811.13;5079850;27;99665;-81
2021/05/02 10:58:18;;;;;;;;;;;;;;;16.64;45.17;100806.78;5078309;27;97201;-81
2021/05/02 11:00:47;;;;;;;;;;;;;;;16.75;45.35;100816.81;5079327;27;96972;-81
2021/05/02 11:03:31;;;;;;;;;;;;;;;16.18;46.23;100808.59;5081741;27;99462;-82
2021/05/02 11:06:02;;;;;;;;;;;;;;;16.30;46.00;100820.34;5089689;27;98389;-83
2021/05/02 11:08:43;;;;;;;;;;;;;;;16.11;46.21;100815.22;5087612;27;96756;-83
2021/05/02 11:11:34;;;;;;;;;;;;;;;15.64;47.51;100817.03;5090668;27;96774;-82
2021/05/02 11:14:27;;;;;;;;;;;;;;;16.14;46.57;100825.72;5088195;27;98410;-82
2021/05/02 11:17:08;;;;;;;;;;;;;;;16.01;46.38;100823.84;5081814;27;96893;-84
2021/05/02 11:19:41;;;;;;;;;;;;;;;16.29;45.86;100819.47;5081830;27;96888;-85
2021/05/02 11:22:09;;;;;;;;;;;;;;;16.16;46.10;100823.81;5082796;27;96969;-82
2021/05/02 11:24:51;;;;;;;;;;;;;;;15.85;47.01;100823.81;5082322;27;98838;-82
2021/05/02 11:27:21;;;;;;;;;;;;;;;16.38;45.94;100817.25;5068580;27;99171;-81
2021/05/02 11:30:05;;;;;;;;;;;;;;;16.59;45.52;100824.00;5082962;27;96952;-82
2021/05/02 11:32:34;;;;;;;;;;;;;;;16.48;45.38;100826.41;5076382;27;98860;-81
2021/05/02 11:35:01;;;;;;;;;;;;;;;15.79;46.77;100824.16;5075942;27;98926;-82
2021/05/02 11:37:41;;;;;;;;;;;;;;;16.30;45.80;100815.88;5079388;27;99194;-81
2021/05/02 11:40:27;;;;;;;;;;;;;;;16.49;45.28;100828.13;5087841;27;96865;-80
2021/05/02 11:42:53;;;;;;;;;;;;;;;16.85;44.46;100831.34;5092388;27;97559;-81
2021/05/02 11:45:20;;;;;;;;;;;;;;;16.16;46.07;100829.13;5091410;27;101970;-80
2021/05/02 11:47:47;;;;;;;;;;;;;;;16.68;45.07;100828.78;5093869;27;98649;-82
2021/05/02 11:50:13;;;;;;;;;;;;;;;16.58;45.15;100831.13;5093558;27;96626;-79
2021/05/02 11:52:47;;;;;;;;;;;;;;;16.32;45.09;100839.78;5089023;27;97805;-82
2021/05/02 11:55:26;;;;;;;;;;;;;;;16.54;45.24;100829.56;5095316;27;98223;-80
2021/05/02 11:57:52;;;;;;;;;;;;;;;16.67;44.51;100835.09;5094949;27;97849;-82
2021/05/02 12:00:32;;;;;;;;;;;;;;;16.56;44.74;100832.16;5095192;27;96765;-83
2021/05/02 12:02:58;;;;;;;;;;;;;;;16.65;44.49;100831.66;5093541;27;96703;-82
2021/05/02 12:05:24;;;;;;;;;;;;;;;15.98;46.54;100837.31;5092681;27;98059;-82
2021/05/02 12:08:04;;;;;;;;;;;;;;;16.57;45.33;100828.53;5087865;27;99060;-80
2021/05/02 12:10:31;;;;;;;;;;;;;;;16.03;46.50;100825.44;5086519;27;97117;-80
2021/05/02 12:12:57;;;;;;;;;;;;;;;16.75;44.38;100824.81;5084093;27;96799;-81
2021/05/02 12:15:23;;;;;;;;;;;;;;;16.83;44.62;100827.03;5084749;27;101657;-79
2021/05/02 12:17:52;;;;;;;;;;;;;;;16.99;44.21;100826.03;5069912;27;99152;-80
2021/05/02 12:20:21;;;;;;;;;;;;;;;16.99;44.42;100831.38;5085048;27;97164;-81
2021/05/02 12:22:48;;;;;;;;;;;;;;;17.69;42.48;100827.00;5091391;27;97068;-80
2021/05/02 12:25:14;;;;;;;;;;;;;;;17.69;42.28;100823.47;5095362;27;97775;-79
2021/05/02 12:27:53;;;;;;;;;;;;;;;17.47;42.64;100830.13;5082741;27;99247;-80
2021/05/02 12:30:19;;;;;;;;;;;;;;;17.85;42.18;100824.22;5086934;27;97227;-80
2021/05/02 12:32:46;;;;;;;;;;;;;;;17.93;41.35;100820.06;5090391;27;96830;-80
2021/05/02 12:35:12;;;;;;;;;;;;;;;17.44;41.81;100826.81;5098185;27;96548;-80
2021/05/02 12:37:38;;;;;;;;;;;;;;;17.47;41.46;100830.13;5093205;27;100317;-81
2021/05/02 12:40:07;;;;;;;;;;;;;;;17.60;41.14;100826.69;5093061;27;97910;-80
2021/05/02 12:42:36;;;;;;;;;;;;;;;17.99;40.68;100824.16;5094375;27;97527;-84